PWSweather.com
Personal Weather Stations
Station Observations
BLACKWELL
Blackwell, AlfretonGB DE55

BlackwellAlfretonGB DE55

Lat: 53.12076, Lon: -1.354978

Elevation: 410

Station Type: Vantage Pro

High Low Average
Temperature 46.2°F7.9°C 31.6°F-0.2°C 39.5°F4.2°C
Dew Point 39.9°F4.4°C 30.4°F-0.9°C 36.2°F2.3°C
Winds 4.0 mph 6.4 kmh Calm Calm 1.0 mph ENE1.6 kmh ENE
Wind Gusts 10.0 mph16.1 kmh -- 4.0 mph6.4 kmh
Humidity 96% 70% 88%
Pressure 29.49 in998.6 mb 29.30 in992.2 mb -
Precipitation 0.10 in2.5 mm - -
Hour Temp Dew Point Humidity Winds Wind Gusts Pressure Precip Precip Rate Daily Precip Total
12:42 AM 32.7°F0.4°C 31.1°F-0.5°C 94% Calm Calm -- 29.39 in995.3 mb 0.00 in0.0 mm 0.00 in0.0 mm 0.00 in0.0 mm
01:42 AM 32.5°F0.3°C 31.3°F-0.4°C 95% Calm Calm -- 29.37 in994.6 mb 0.00 in0.0 mm 0.00 in0.0 mm 0.00 in0.0 mm
02:42 AM 32.5°F0.3°C 31.3°F-0.4°C 95% Calm Calm 1.0 mph1.6 kmh 29.36 in994.2 mb 0.00 in0.0 mm 0.00 in0.0 mm 0.00 in0.0 mm
03:42 AM 32.5°F0.3°C 31.3°F-0.4°C 95% Calm Calm -- 29.35 in993.9 mb 0.00 in0.0 mm 0.00 in0.0 mm 0.00 in0.0 mm
04:42 AM 31.6°F-0.2°C 30.4°F-0.9°C 95% Calm Calm -- 29.34 in993.6 mb 0.00 in0.0 mm 0.00 in0.0 mm 0.00 in0.0 mm
05:42 AM 31.8°F-0.1°C 30.7°F-0.7°C 96% Calm Calm -- 29.34 in993.6 mb 0.00 in0.0 mm 0.00 in0.0 mm 0.00 in0.0 mm
06:42 AM 33.3°F0.7°C 32.4°F0.2°C 96% Calm Calm 1.0 mph1.6 kmh 29.34 in993.6 mb 0.00 in0.0 mm 0.00 in0.0 mm 0.00 in0.0 mm
07:42 AM 35.4°F1.9°C 34.5°F1.4°C 96% Calm Calm 3.0 mph4.8 kmh 29.34 in993.6 mb 0.00 in0.0 mm 0.00 in0.0 mm 0.00 in0.0 mm
08:42 AM 38.5°F3.6°C 36.1°F2.3°C 91% 1.0 mph E1.6 kmh E 4.0 mph6.4 kmh 29.34 in993.6 mb 0.00 in0.0 mm 0.00 in0.0 mm 0.00 in0.0 mm
09:42 AM 40.3°F4.6°C 37.0°F2.8°C 88% 2.0 mph E3.2 kmh E 5.0 mph8.0 kmh 29.33 in993.2 mb 0.00 in0.0 mm 0.00 in0.0 mm 0.00 in0.0 mm
10:42 AM 43.2°F6.2°C 38.1°F3.4°C 82% 3.0 mph E4.8 kmh E 6.0 mph9.7 kmh 29.31 in992.6 mb 0.00 in0.0 mm 0.00 in0.0 mm 0.00 in0.0 mm
11:42 AM 45.0°F7.2°C 38.1°F3.4°C 77% 3.0 mph E4.8 kmh E 7.0 mph11.3 kmh 29.31 in992.6 mb 0.00 in0.0 mm 0.00 in0.0 mm 0.00 in0.0 mm
12:42 PM 46.2°F7.9°C 37.0°F2.8°C 70% 4.0 mph E6.4 kmh E 8.0 mph12.9 kmh 29.30 in992.2 mb 0.00 in0.0 mm 0.00 in0.0 mm 0.00 in0.0 mm
01:42 PM 44.8°F7.1°C 38.7°F3.7°C 79% 2.0 mph E3.2 kmh E 6.0 mph9.7 kmh 29.31 in992.6 mb 0.00 in0.0 mm 0.00 in0.0 mm 0.00 in0.0 mm
02:42 PM 45.9°F7.7°C 37.6°F3.1°C 73% 3.0 mph E4.8 kmh E 8.0 mph12.9 kmh 29.31 in992.6 mb 0.01 in0.3 mm 0.00 in0.0 mm 0.01 in0.3 mm
03:42 PM 43.5°F6.4°C 39.4°F4.1°C 85% 2.0 mph E3.2 kmh E 10.0 mph16.1 kmh 29.32 in992.9 mb 0.02 in0.5 mm 0.00 in0.0 mm 0.02 in0.5 mm
04:42 PM 43.5°F6.4°C 39.9°F4.4°C 87% 1.0 mph E1.6 kmh E 6.0 mph9.7 kmh 29.33 in993.2 mb 0.02 in0.5 mm 0.00 in0.0 mm 0.04 in1.0 mm
05:43 PM 44.8°F7.1°C 39.2°F4.0°C 81% 3.0 mph E4.8 kmh E 7.0 mph11.3 kmh 29.35 in993.9 mb 0.01 in0.3 mm 0.60 in15.2 mm 0.05 in1.3 mm
06:42 PM 42.3°F5.7°C 39.6°F4.2°C 90% 1.0 mph SW1.6 kmh SW 6.0 mph9.7 kmh 29.40 in995.6 mb 0.02 in0.5 mm 0.60 in15.2 mm 0.07 in1.8 mm
07:42 PM 41.4°F5.2°C 39.6°F4.2°C 93% Calm Calm 4.0 mph6.4 kmh 29.43 in996.6 mb 0.02 in0.5 mm 0.00 in0.0 mm 0.09 in2.3 mm
08:42 PM 41.0°F5.0°C 39.2°F4.0°C 93% 1.0 mph E1.6 kmh E 5.0 mph8.0 kmh 29.45 in997.3 mb 0.00 in0.0 mm 0.00 in0.0 mm 0.09 in2.3 mm
09:42 PM 41.2°F5.1°C 39.0°F3.9°C 92% 1.0 mph ENE1.6 kmh ENE 4.0 mph6.4 kmh 29.45 in997.3 mb 0.00 in0.0 mm 0.00 in0.0 mm 0.09 in2.3 mm
10:42 PM 41.7°F5.4°C 39.0°F3.9°C 90% Calm Calm 2.0 mph3.2 kmh 29.48 in998.3 mb 0.01 in0.3 mm 0.00 in0.0 mm 0.10 in2.5 mm
11:42 PM 41.5°F5.3°C 38.8°F3.8°C 90% Calm Calm 2.0 mph3.2 kmh 29.49 in998.6 mb 0.00 in0.0 mm 0.00 in0.0 mm 0.05 in1.3 mm